createdAt,value
2018-03-15T00:00:09.474Z,2.7
2018-03-15T00:03:09.457Z,3.6
2018-03-15T00:06:09.430Z,3
2018-03-15T00:09:09.464Z,2.6
2018-03-15T00:12:09.438Z,2.8
2018-03-15T00:15:09.431Z,2.6
2018-03-15T00:18:09.419Z,2.7
2018-03-15T00:21:09.432Z,2.6
2018-03-15T00:24:09.424Z,3.7
2018-03-15T00:27:09.451Z,2.6
2018-03-15T00:30:09.425Z,2.6
2018-03-15T00:33:09.428Z,2.6
2018-03-15T00:36:09.431Z,2.7
2018-03-15T00:39:09.421Z,2.6
2018-03-15T00:42:09.437Z,3.1
2018-03-15T00:45:09.424Z,2.8
2018-03-15T00:48:09.475Z,2.7
2018-03-15T00:51:09.454Z,3.1
2018-03-15T00:54:09.404Z,2.9
2018-03-15T00:57:09.443Z,2.8
2018-03-15T01:00:09.426Z,2.6
2018-03-15T01:03:09.413Z,2.5
2018-03-15T01:06:09.405Z,2.7
2018-03-15T01:09:09.425Z,2.8
2018-03-15T01:12:09.476Z,2.7
2018-03-15T01:15:09.512Z,2.7
2018-03-15T01:18:09.476Z,2.8
2018-03-15T01:21:09.426Z,2.7
2018-03-15T01:24:09.437Z,2.8
2018-03-15T01:27:09.405Z,2.7
2018-03-15T01:30:09.404Z,3
2018-03-15T01:33:09.420Z,2.8
2018-03-15T01:36:09.450Z,2.7
2018-03-15T01:39:09.690Z,3
2018-03-15T01:42:09.401Z,2.7
2018-03-15T01:45:09.404Z,2.7
2018-03-15T01:48:09.459Z,2.8
2018-03-15T01:51:09.411Z,2.7
2018-03-15T01:54:09.405Z,2.8
2018-03-15T01:57:09.418Z,2.8
2018-03-15T02:00:09.413Z,2.8
2018-03-15T02:03:09.380Z,2.7
2018-03-15T02:06:09.391Z,3
2018-03-15T02:09:09.395Z,2.8
2018-03-15T02:12:09.439Z,2.7
2018-03-15T02:15:09.388Z,2.8
2018-03-15T02:18:09.480Z,3
2018-03-15T02:21:09.366Z,2.8
2018-03-15T02:24:09.393Z,3.2
2018-03-15T02:27:09.490Z,2.9
2018-03-15T02:30:09.436Z,3.1
2018-03-15T02:33:09.396Z,3
2018-03-15T02:36:09.427Z,2.8
2018-03-15T02:39:09.394Z,3.1
2018-03-15T02:42:09.397Z,3
2018-03-15T02:45:09.390Z,3.1
2018-03-15T02:48:09.383Z,3.2
2018-03-15T02:51:09.398Z,3
2018-03-15T02:54:09.399Z,3
2018-03-15T02:57:09.451Z,3
2018-03-15T03:00:09.431Z,3.2
2018-03-15T03:03:10.155Z,2.9
2018-03-15T03:06:09.428Z,3
2018-03-15T03:09:09.380Z,3
2018-03-15T03:12:09.365Z,3
2018-03-15T03:15:09.391Z,3.1
2018-03-15T03:18:09.377Z,3.1
2018-03-15T03:21:09.381Z,3
2018-03-15T03:24:09.364Z,3.1
2018-03-15T03:27:09.401Z,3.3
2018-03-15T03:30:09.385Z,3.2
2018-03-15T03:33:09.384Z,3.2
2018-03-15T03:36:09.369Z,2.9
2018-03-15T03:39:09.397Z,3
2018-03-15T03:42:09.410Z,3.2
2018-03-15T03:45:09.423Z,3
2018-03-15T03:48:09.404Z,3.2
2018-03-15T03:51:09.375Z,3.1
2018-03-15T03:54:09.391Z,3.2
2018-03-15T03:57:09.357Z,3.1
2018-03-15T04:00:09.364Z,3.1
2018-03-15T04:03:09.361Z,3.3
2018-03-15T04:06:09.363Z,2.8
2018-03-15T04:09:09.376Z,3.3
2018-03-15T04:12:09.364Z,3.1
2018-03-15T04:15:09.345Z,3.2
2018-03-15T04:18:09.354Z,3.2
2018-03-15T04:21:09.382Z,3.2
2018-03-15T04:24:09.365Z,3
2018-03-15T04:27:09.441Z,3.6
2018-03-15T04:30:09.363Z,3.2
2018-03-15T04:33:09.374Z,2.9
2018-03-15T04:36:09.348Z,3
2018-03-15T04:39:09.325Z,3.2
2018-03-15T04:42:09.347Z,3.2
2018-03-15T04:45:09.364Z,2.9
2018-03-15T04:48:09.328Z,3.1
2018-03-15T04:51:09.348Z,3.1
2018-03-15T04:54:09.319Z,3
2018-03-15T04:57:09.370Z,3
2018-03-15T05:00:09.371Z,2.8
2018-03-15T05:03:09.336Z,2.8
2018-03-15T05:06:09.567Z,2.6
2018-03-15T05:09:09.322Z,3.1
2018-03-15T05:12:09.336Z,2.9
2018-03-15T05:15:09.360Z,2.7
2018-03-15T05:18:09.523Z,2.6
2018-03-15T05:21:09.463Z,3.1
2018-03-15T05:24:09.326Z,2.9
2018-03-15T05:27:09.330Z,2.5
2018-03-15T05:30:09.328Z,2.7
2018-03-15T05:33:09.358Z,2.6
2018-03-15T05:36:09.314Z,2.5
2018-03-15T05:39:09.339Z,2.6
2018-03-15T05:42:09.311Z,2.6
2018-03-15T05:45:09.368Z,2.4
2018-03-15T05:48:09.313Z,2.4
2018-03-15T05:51:09.361Z,2.3
2018-03-15T05:54:09.361Z,2.7
2018-03-15T05:57:09.317Z,3.7
2018-03-15T06:00:09.333Z,3.5
2018-03-15T06:03:09.340Z,2.6
2018-03-15T06:06:09.335Z,3.7
2018-03-15T06:09:09.341Z,2.9
2018-03-15T06:12:09.387Z,2.8
2018-03-15T06:15:09.358Z,2.6
2018-03-15T06:18:09.311Z,2.4
2018-03-15T06:21:09.303Z,2.5
2018-03-15T06:24:09.294Z,2.7
2018-03-15T06:27:09.387Z,2.6
2018-03-15T06:30:09.351Z,2.3
2018-03-15T06:33:09.299Z,2.4
2018-03-15T06:36:09.306Z,2.5
2018-03-15T06:39:09.300Z,2.8
2018-03-15T06:42:09.319Z,2.4
2018-03-15T06:45:09.308Z,2.4
2018-03-15T06:48:09.324Z,2.3
2018-03-15T06:51:09.312Z,2.3
2018-03-15T06:54:09.310Z,2.3
2018-03-15T06:57:09.304Z,2.5
2018-03-15T07:00:09.301Z,2.4
2018-03-15T07:03:09.282Z,2.5
2018-03-15T07:06:09.294Z,2.4
2018-03-15T07:09:09.287Z,2.4
2018-03-15T07:12:09.307Z,2.4
2018-03-15T07:15:09.302Z,2.4
2018-03-15T07:18:09.328Z,2.7
2018-03-15T07:21:09.304Z,2.4
2018-03-15T07:24:09.284Z,2.3
2018-03-15T07:27:09.333Z,2.4
2018-03-15T07:30:09.287Z,2.4
2018-03-15T07:33:09.284Z,2.2
2018-03-15T07:36:09.295Z,2.3
2018-03-15T07:39:09.357Z,2.3
2018-03-15T07:42:09.256Z,2.3
2018-03-15T07:45:09.279Z,2.3
2018-03-15T07:48:09.253Z,2.4
2018-03-15T07:51:09.332Z,2.4
2018-03-15T07:54:09.308Z,2.3
2018-03-15T07:57:09.281Z,2.2
2018-03-15T08:00:09.289Z,2.2
2018-03-15T08:03:09.267Z,2.2
2018-03-15T08:06:09.288Z,2.5
2018-03-15T08:09:09.302Z,2.1
2018-03-15T08:12:09.298Z,2.2
2018-03-15T08:15:09.266Z,2
2018-03-15T08:18:09.273Z,2.8
2018-03-15T08:21:09.277Z,4.5
2018-03-15T08:24:09.350Z,4.6
2018-03-15T08:27:09.267Z,3.3
2018-03-15T08:30:09.377Z,3
2018-03-15T08:33:09.319Z,4.2
2018-03-15T08:36:09.310Z,3.4
2018-03-15T08:39:09.280Z,3.2
2018-03-15T08:42:09.310Z,3.9
2018-03-15T08:45:09.268Z,3.7
2018-03-15T08:48:09.279Z,2.9
2018-03-15T08:51:09.323Z,2.8
2018-03-15T08:54:09.282Z,2.9
2018-03-15T08:57:09.498Z,4
2018-03-15T09:00:09.435Z,5.7
2018-03-15T09:03:09.255Z,3
2018-03-15T09:06:09.481Z,3.1
2018-03-15T09:09:09.294Z,3.1
2018-03-15T09:12:09.244Z,2.5
2018-03-15T09:15:09.279Z,3
2018-03-15T09:18:09.258Z,2.6
2018-03-15T09:21:09.273Z,2.5
2018-03-15T09:24:09.264Z,2.8
2018-03-15T09:27:09.284Z,2.4
2018-03-15T09:30:09.375Z,2.3
2018-03-15T09:33:09.355Z,2.4
2018-03-15T09:36:10.195Z,2.5
2018-03-15T09:39:09.423Z,2.3
2018-03-15T09:42:09.640Z,2.2
2018-03-15T09:45:09.406Z,2.4
2018-03-15T09:48:09.399Z,2.2
2018-03-15T09:51:09.641Z,2.4
2018-03-15T09:54:09.486Z,2.1
2018-03-15T09:57:09.351Z,2.7
2018-03-15T10:00:09.438Z,2.3
2018-03-15T10:03:09.361Z,2.2
2018-03-15T10:06:09.385Z,2.2
2018-03-15T10:09:09.365Z,2.2
2018-03-15T10:12:09.381Z,2.2
2018-03-15T10:15:09.394Z,2.1
2018-03-15T10:18:09.409Z,2.7
2018-03-15T10:21:11.857Z,2
2018-03-15T10:24:09.513Z,2.1
2018-03-15T10:27:09.352Z,2.5
2018-03-15T10:30:13.121Z,2.3
2018-03-15T10:33:09.669Z,2.2
2018-03-15T10:36:13.104Z,2.2
2018-03-15T10:39:09.528Z,2.2
2018-03-15T10:42:09.458Z,2.2
2018-03-15T10:45:09.461Z,2.3
2018-03-15T10:48:09.709Z,2
2018-03-15T10:51:09.599Z,2.2
2018-03-15T10:54:09.578Z,2
2018-03-15T10:57:09.446Z,2.1
2018-03-15T11:00:09.415Z,2.8
2018-03-15T11:03:09.426Z,2.2
2018-03-15T11:06:09.438Z,2.2
2018-03-15T11:09:09.417Z,1.9
2018-03-15T11:12:10.186Z,2
2018-03-15T11:15:14.527Z,2.5
2018-03-15T11:18:10.082Z,2.1
2018-03-15T11:21:09.436Z,2.6
2018-03-15T11:24:09.567Z,2.1
2018-03-15T11:27:09.419Z,2
2018-03-15T11:30:09.918Z,2
2018-03-15T11:33:09.484Z,2.1
2018-03-15T11:36:09.421Z,2.1
2018-03-15T11:39:09.616Z,1.9
2018-03-15T11:42:09.519Z,2.1
2018-03-15T11:45:09.392Z,2
2018-03-15T11:48:09.515Z,2
2018-03-15T11:51:09.419Z,2.1
2018-03-15T11:54:09.514Z,2
2018-03-15T11:57:09.430Z,1.9
2018-03-15T12:00:09.471Z,2
2018-03-15T12:03:09.467Z,1.9
2018-03-15T12:06:09.389Z,1.8
2018-03-15T12:09:14.626Z,1.9
2018-03-15T12:12:09.449Z,1.9
2018-03-15T12:15:09.360Z,1.9
2018-03-15T12:18:09.436Z,1.8
2018-03-15T12:21:09.336Z,1.9
2018-03-15T12:24:09.272Z,2.3
2018-03-15T12:27:09.333Z,1.9
2018-03-15T12:30:09.285Z,1.9
2018-03-15T12:33:09.253Z,1.8
2018-03-15T12:36:09.263Z,1.8
2018-03-15T12:39:09.275Z,1.8
2018-03-15T12:42:09.274Z,1.9
2018-03-15T12:45:09.291Z,2
2018-03-15T12:48:09.289Z,1.8
2018-03-15T12:51:09.245Z,1.9
2018-03-15T12:54:09.247Z,1.8
2018-03-15T12:57:09.252Z,1.9
2018-03-15T13:00:09.233Z,2.1
2018-03-15T13:03:09.241Z,1.9
2018-03-15T13:06:09.245Z,1.8
2018-03-15T13:09:09.296Z,1.9
2018-03-15T13:12:09.237Z,1.8
2018-03-15T13:15:09.237Z,1.9
2018-03-15T13:18:09.234Z,1.9
2018-03-15T13:21:09.258Z,1.8
2018-03-15T13:24:09.258Z,2.1
2018-03-15T13:27:09.240Z,1.8
2018-03-15T13:30:09.280Z,2
2018-03-15T13:33:09.235Z,2
2018-03-15T13:36:09.271Z,2
2018-03-15T13:39:09.254Z,1.8
2018-03-15T13:42:09.278Z,1.9
2018-03-15T13:45:09.234Z,2
2018-03-15T13:48:09.236Z,1.8
2018-03-15T13:51:09.324Z,1.8
2018-03-15T13:54:09.278Z,2
2018-03-15T13:57:09.251Z,2
2018-03-15T14:00:09.219Z,2
2018-03-15T14:03:09.270Z,1.9
2018-03-15T14:06:09.255Z,2
2018-03-15T14:09:09.264Z,2
2018-03-15T14:12:09.216Z,2
2018-03-15T14:15:09.235Z,1.8
2018-03-15T14:18:09.228Z,2
2018-03-15T14:21:09.208Z,1.8
2018-03-15T14:24:09.260Z,2.1
2018-03-15T14:27:09.294Z,2
2018-03-15T14:30:09.225Z,2
2018-03-15T14:33:09.322Z,2
2018-03-15T14:36:09.205Z,1.8
2018-03-15T14:39:09.222Z,1.9
2018-03-15T14:42:09.206Z,2.4
2018-03-15T14:45:09.233Z,4.3
2018-03-15T14:48:09.239Z,2.9
2018-03-15T14:51:09.270Z,2.9
2018-03-15T14:54:09.220Z,2.7
2018-03-15T14:57:09.247Z,2.5
2018-03-15T15:00:09.250Z,4.1
2018-03-15T15:03:09.210Z,3.9
2018-03-15T15:06:09.235Z,2.9
2018-03-15T15:09:09.208Z,6.6
2018-03-15T15:12:09.202Z,2.9
2018-03-15T15:15:09.273Z,3.5
2018-03-15T15:18:09.588Z,2.6
2018-03-15T15:21:09.223Z,2.3
2018-03-15T15:24:09.203Z,2.9
2018-03-15T15:27:09.217Z,2.7
2018-03-15T15:30:09.229Z,3.4
2018-03-15T15:33:09.201Z,3.8
2018-03-15T15:36:09.240Z,2.7
2018-03-15T15:39:09.238Z,2.4
2018-03-15T15:42:09.232Z,2.6
2018-03-15T15:45:09.262Z,2.4
2018-03-15T15:48:09.200Z,3.7
2018-03-15T15:51:09.195Z,2.8
2018-03-15T15:54:09.190Z,2.6
2018-03-15T15:57:09.215Z,2.9
2018-03-15T16:00:09.204Z,2.3
2018-03-15T16:03:09.210Z,2.2
2018-03-15T16:06:09.216Z,3
2018-03-15T16:09:09.172Z,2.7
2018-03-15T16:12:09.211Z,2.8
2018-03-15T16:15:09.196Z,3.1
2018-03-15T16:18:09.173Z,2.7
2018-03-15T16:21:09.219Z,2.1
2018-03-15T16:24:09.179Z,2.7
2018-03-15T16:27:09.176Z,2.2
2018-03-15T16:30:09.240Z,2.4
2018-03-15T16:33:09.310Z,2.3
2018-03-15T16:36:09.180Z,2.4
2018-03-15T16:39:09.174Z,2.3
2018-03-15T16:42:09.192Z,2.1
2018-03-15T16:45:09.191Z,2.1
2018-03-15T16:48:09.216Z,2.2
2018-03-15T16:51:09.778Z,2.1
2018-03-15T16:54:09.166Z,2
2018-03-15T16:57:09.163Z,2.2
2018-03-15T17:00:09.613Z,2.2
2018-03-15T17:03:09.180Z,4
2018-03-15T17:06:09.154Z,1.9
2018-03-15T17:09:09.190Z,2.1
2018-03-15T17:12:09.180Z,3
2018-03-15T17:15:09.186Z,2.3
2018-03-15T17:18:09.190Z,2.3
2018-03-15T17:21:09.198Z,2.1
2018-03-15T17:24:09.214Z,2.2
2018-03-15T17:27:09.159Z,2.9
2018-03-15T17:30:09.450Z,2.2
2018-03-15T17:33:09.270Z,2.2
2018-03-15T17:36:09.167Z,2.4
2018-03-15T17:39:09.156Z,2.1
2018-03-15T17:42:09.204Z,2.1
2018-03-15T17:45:09.179Z,2
2018-03-15T17:48:09.209Z,2.2
2018-03-15T17:51:09.205Z,2.2
2018-03-15T17:54:09.194Z,7.2
2018-03-15T17:57:09.166Z,2.8
2018-03-15T18:00:09.171Z,4.1
2018-03-15T18:03:09.163Z,5.9
2018-03-15T18:06:09.181Z,3
2018-03-15T18:09:09.169Z,2.4
2018-03-15T18:12:09.134Z,3.3
2018-03-15T18:15:09.163Z,2.5
2018-03-15T18:18:09.156Z,2.3
2018-03-15T18:21:09.987Z,2.3
2018-03-15T18:24:09.138Z,2.2
2018-03-15T18:27:09.176Z,3
2018-03-15T18:30:09.159Z,2.8
2018-03-15T18:33:09.150Z,2.6
2018-03-15T18:36:09.181Z,2.3
2018-03-15T18:39:09.153Z,2.3
2018-03-15T18:42:09.161Z,2.6
2018-03-15T18:45:09.208Z,2.3
2018-03-15T18:48:09.145Z,2.3
2018-03-15T18:51:09.149Z,2.3
2018-03-15T18:54:09.150Z,2.3
2018-03-15T18:57:09.173Z,2.6
2018-03-15T19:00:09.171Z,2.5
2018-03-15T19:03:09.130Z,2.2
2018-03-15T19:06:09.203Z,2.8
2018-03-15T19:09:09.214Z,2.3
2018-03-15T19:12:09.156Z,2.3
2018-03-15T19:15:09.131Z,2.4
2018-03-15T19:18:09.218Z,2.3
2018-03-15T19:21:09.225Z,2.3
2018-03-15T19:24:09.174Z,2.6
2018-03-15T19:27:09.167Z,3.7
2018-03-15T19:30:09.219Z,3.1
2018-03-15T19:33:09.195Z,2.5
2018-03-15T19:36:09.194Z,2.6
2018-03-15T19:39:09.204Z,3
2018-03-15T19:42:09.166Z,5.6
2018-03-15T19:45:09.175Z,2.7
2018-03-15T19:48:09.168Z,3
2018-03-15T19:51:09.165Z,3.7
2018-03-15T19:54:09.166Z,4
2018-03-15T19:57:09.164Z,4.3
2018-03-15T20:00:09.185Z,4.8
2018-03-15T20:05:21.928Z,4
2018-03-15T20:08:21.934Z,4.2
2018-03-15T20:11:21.900Z,7.5
2018-03-15T20:14:21.910Z,7
2018-03-15T20:20:50.385Z,4.8
2018-03-15T20:23:50.458Z,5.3
2018-03-15T20:26:50.384Z,5.7
2018-03-15T20:29:50.376Z,4.7
2018-03-15T20:32:50.372Z,6.2
2018-03-15T20:35:50.392Z,10.7
2018-03-15T20:38:50.362Z,4.9
2018-03-15T20:41:50.400Z,5.8
2018-03-15T20:44:50.381Z,5.7
2018-03-15T20:47:50.360Z,4.3
2018-03-15T20:50:50.388Z,6.4
2018-03-15T20:53:50.365Z,3.3
2018-03-15T20:56:50.400Z,5
2018-03-15T20:59:50.387Z,4.8
2018-03-15T21:02:50.377Z,4.7
2018-03-15T21:05:50.373Z,4.3
2018-03-15T21:08:50.383Z,3.5
2018-03-15T21:11:50.404Z,4
2018-03-15T21:14:50.385Z,5
2018-03-15T21:17:50.390Z,3.8
2018-03-15T21:20:50.549Z,5.2
2018-03-15T21:23:50.362Z,3.9
2018-03-15T21:26:51.415Z,5.2
2018-03-15T21:29:50.378Z,3.7
2018-03-15T21:32:50.390Z,4
2018-03-15T21:35:50.347Z,3.4
2018-03-15T21:38:50.353Z,3.9
2018-03-15T21:41:50.375Z,3.4
2018-03-15T21:44:50.364Z,4
2018-03-15T21:47:50.383Z,4.5
2018-03-15T21:50:50.355Z,3.3
2018-03-15T21:53:50.393Z,3.5
2018-03-15T21:56:50.374Z,3.8
2018-03-15T21:59:50.469Z,4.5
2018-03-15T22:02:50.378Z,3.6
2018-03-15T22:05:50.359Z,5.1
2018-03-15T22:08:50.400Z,4.3
2018-03-15T22:11:50.379Z,3.3
2018-03-15T22:14:50.438Z,3.5
2018-03-15T22:17:50.503Z,4.3
2018-03-15T22:20:50.343Z,3.3
2018-03-15T22:23:50.376Z,4
2018-03-15T22:26:50.323Z,3.3
2018-03-15T22:29:50.358Z,3.9
2018-03-15T22:32:50.396Z,3.8
2018-03-15T22:35:50.407Z,4
2018-03-15T22:38:50.362Z,4.4
2018-03-15T22:41:50.362Z,3.4
2018-03-15T22:44:50.453Z,3.6
2018-03-15T22:47:50.342Z,3.5
2018-03-15T22:50:50.343Z,3.3
2018-03-15T22:53:50.361Z,3.6
2018-03-15T22:56:50.390Z,3.4
2018-03-15T22:59:50.346Z,4
2018-03-15T23:02:50.394Z,3.4
2018-03-15T23:05:50.330Z,3.3
2018-03-15T23:08:50.365Z,3.8
2018-03-15T23:11:50.336Z,3.4
2018-03-15T23:14:50.381Z,3.4
2018-03-15T23:17:50.334Z,3.4
2018-03-15T23:20:50.354Z,3.2
2018-03-15T23:23:50.342Z,3.5
2018-03-15T23:26:50.412Z,3.3
2018-03-15T23:29:50.339Z,3.3
2018-03-15T23:32:50.326Z,3.3
2018-03-15T23:35:50.345Z,3.7
2018-03-15T23:38:50.352Z,3.5
2018-03-15T23:41:50.370Z,3.3
2018-03-15T23:44:50.318Z,3.3
2018-03-15T23:47:50.342Z,3.9
2018-03-15T23:50:50.355Z,3.5
2018-03-15T23:53:50.333Z,3.5
2018-03-15T23:56:50.372Z,3.3
2018-03-15T23:59:50.308Z,3.5
